Time;durP1;ratioP1;P1;durP2;ratioP2;P2;SDS_P1;SDS_P2;PMS_P1;PMS_P2;Temp;Humidity;BMP_temperature;BMP_pressure;BME280_temperature;BME280_humidity;BME280_pressure;Samples;Min_cycle;Max_cycle;Signal;HPM_P1;HPM_P2
2022/03/13 00:00:47;;;;;;;42.05;19.45;;;;;;;3.68;50.75;99082.72;5271146;28;20051;-68
2022/03/13 00:03:38;;;;;;;46.22;20.10;;;;;;;3.55;50.60;99092.31;5267166;28;20054;-68
2022/03/13 00:06:35;;;;;;;41.60;18.30;;;;;;;3.63;50.52;99099.69;5268430;28;20054;-68
2022/03/13 00:09:25;;;;;;;35.72;18.80;;;;;;;3.55;52.04;99096.72;5269991;28;20059;-68
2022/03/13 00:12:18;;;;;;;40.58;19.80;;;;;;;3.71;51.41;99085.16;5269564;28;20055;-67
2022/03/13 00:15:14;;;;;;;39.30;19.98;;;;;;;3.81;51.13;99081.91;5264497;28;20070;-67
2022/03/13 00:18:04;;;;;;;41.15;20.90;;;;;;;3.41;51.89;99095.81;5263077;28;20632;-68
2022/03/13 00:20:55;;;;;;;45.17;22.20;;;;;;;3.28;51.94;99103.59;5258165;28;20044;-67
2022/03/13 00:23:47;;;;;;;43.25;20.75;;;;;;;3.19;52.17;99101.53;5265038;28;20100;-67
2022/03/13 00:26:37;;;;;;;41.97;20.20;;;;;;;3.29;53.32;99104.41;5257694;28;20544;-68
2022/03/13 00:29:27;;;;;;;41.55;20.88;;;;;;;3.19;52.28;99092.84;5264416;28;20055;-67
2022/03/13 00:32:17;;;;;;;48.42;21.27;;;;;;;3.22;52.74;99100.50;5263885;28;20149;-67
2022/03/13 00:35:11;;;;;;;41.10;19.88;;;;;;;3.16;52.04;99101.72;5269381;28;20074;-67
2022/03/13 00:38:01;;;;;;;37.95;20.10;;;;;;;3.08;52.77;99103.09;5263917;28;20563;-68
2022/03/13 00:40:53;;;;;;;44.58;20.27;;;;;;;3.10;52.79;99096.00;5270656;28;20047;-68
2022/03/13 00:43:43;;;;;;;42.90;20.38;;;;;;;3.10;52.89;99094.22;5270545;28;20062;-67
2022/03/13 00:46:36;;;;;;;40.88;21.20;;;;;;;3.04;53.45;99091.97;5262671;28;20636;-68
2022/03/13 00:49:26;;;;;;;40.80;20.75;;;;;;;2.97;52.36;99098.53;5267672;28;20071;-67
2022/03/13 00:52:17;;;;;;;40.55;19.80;;;;;;;2.96;54.19;99102.09;5266734;28;20051;-68
2022/03/13 00:55:07;;;;;;;45.03;20.15;;;;;;;2.88;53.92;99094.72;5267110;28;20055;-67
2022/03/13 00:57:57;;;;;;;42.90;21.02;;;;;;;2.84;54.13;99095.81;5272782;28;20054;-67
2022/03/13 01:00:47;;;;;;;45.45;21.02;;;;;;;2.86;54.30;99096.56;5267990;28;20051;-68
2022/03/13 01:03:38;;;;;;;47.65;23.05;;;;;;;2.85;55.06;99101.88;5268409;28;20052;-68
2022/03/13 01:06:28;;;;;;;47.03;23.00;;;;;;;2.79;54.64;99079.56;5267363;28;20056;-68
2022/03/13 01:09:18;;;;;;;55.58;23.23;;;;;;;2.70;54.48;99072.25;5262157;28;20063;-67
2022/03/13 01:12:10;;;;;;;48.13;21.90;;;;;;;3.01;54.23;99084.31;5270012;28;20441;-67
2022/03/13 01:15:00;;;;;;;44.47;22.67;;;;;;;2.92;55.04;99084.91;5261303;28;20106;-67
2022/03/13 01:17:50;;;;;;;46.50;22.25;;;;;;;2.70;55.99;99083.56;5267952;28;20070;-68
2022/03/13 01:20:40;;;;;;;45.85;21.85;;;;;;;2.67;55.08;99086.34;5267253;28;20052;-68
2022/03/13 01:23:29;;;;;;;44.20;22.77;;;;;;;2.61;55.46;99067.56;5270306;28;20059;-67
2022/03/13 01:26:23;;;;;;;46.17;22.48;;;;;;;2.58;55.60;99081.66;5266331;28;20044;-67
2022/03/13 01:29:14;;;;;;;46.92;22.42;;;;;;;2.57;55.88;99085.22;5263340;28;20101;-67
2022/03/13 01:32:07;;;;;;;53.58;22.75;;;;;;;2.54;55.14;99077.53;5266672;28;20058;-67
2022/03/13 01:34:58;;;;;;;48.03;23.33;;;;;;;2.72;56.17;99081.69;5268535;28;20055;-68
2022/03/13 01:37:48;;;;;;;45.55;21.95;;;;;;;2.74;55.25;99069.34;5267620;28;20051;-67
2022/03/13 01:40:39;;;;;;;50.17;21.33;;;;;;;2.66;55.17;99071.59;5266141;28;20044;-67
2022/03/13 01:43:31;;;;;;;51.22;22.23;;;;;;;2.57;55.70;99064.28;5272440;28;20043;-68
2022/03/13 01:46:21;;;;;;;50.13;22.00;;;;;;;2.33;55.76;99070.03;5283569;28;20048;-68
2022/03/13 01:49:11;;;;;;;53.13;21.50;;;;;;;2.34;55.96;99074.34;5266990;28;20048;-67
2022/03/13 01:52:02;;;;;;;50.25;22.80;;;;;;;2.32;56.02;99072.75;5265763;28;20051;-68
2022/03/13 01:54:53;;;;;;;48.60;22.75;;;;;;;2.28;55.53;99060.75;5265428;28;20058;-68
2022/03/13 01:57:45;;;;;;;50.33;21.65;;;;;;;2.26;56.59;99068.72;5270173;28;20070;-68
2022/03/13 02:00:36;;;;;;;44.33;22.70;;;;;;;2.29;57.18;99072.94;5280498;28;20193;-67
2022/03/13 02:03:27;;;;;;;49.28;22.13;;;;;;;2.31;57.40;99066.66;5266612;28;20086;-67
2022/03/13 02:06:19;;;;;;;45.80;22.83;;;;;;;2.22;58.53;99076.81;5263368;28;20429;-68
2022/03/13 02:09:11;;;;;;;49.33;22.20;;;;;;;2.31;58.09;99066.66;5270674;28;20169;-67
2022/03/13 02:12:03;;;;;;;52.63;23.45;;;;;;;2.34;58.04;99066.47;5266575;28;20518;-67
2022/03/13 02:14:53;;;;;;;47.53;23.33;;;;;;;2.15;56.91;99065.03;5266649;28;20051;-67
2022/03/13 02:17:43;;;;;;;51.38;24.00;;;;;;;2.05;58.10;99076.06;5262376;28;20513;-67
2022/03/13 02:20:51;;;;;;;46.67;23.40;;;;;;;2.02;58.38;99077.97;5266338;28;20166;-67
2022/03/13 02:23:41;;;;;;;49.05;22.88;;;;;;;1.95;57.42;99067.03;5263650;28;20055;-67
2022/03/13 02:26:32;;;;;;;45.28;22.25;;;;;;;1.94;58.39;99070.56;5269088;28;20476;-68
2022/03/13 02:29:22;;;;;;;54.00;23.73;;;;;;;2.05;57.04;99075.19;5265168;28;20128;-68
2022/03/13 02:32:13;;;;;;;52.10;22.65;;;;;;;1.96;58.25;99067.88;5262848;28;20113;-68
2022/03/13 02:35:03;;;;;;;52.33;24.27;;;;;;;1.96;58.48;99036.50;5264232;28;20063;-67
2022/03/13 02:37:53;;;;;;;53.47;25.38;;;;;;;2.08;59.58;99070.59;5266158;28;20044;-67
2022/03/13 02:40:43;;;;;;;47.22;22.85;;;;;;;2.14;57.15;99043.28;5249560;28;20055;-67
2022/03/13 02:43:34;;;;;;;47.78;22.95;;;;;;;2.16;57.40;99064.13;5266255;28;20152;-67
2022/03/13 02:46:44;;;;;;;52.75;22.85;;;;;;;2.13;57.07;99066.91;5264245;28;20063;-67
2022/03/13 02:49:35;;;;;;;55.42;22.90;;;;;;;1.82;56.71;99051.22;5265749;28;20548;-67
2022/03/13 02:52:25;;;;;;;46.50;21.63;;;;;;;1.83;56.79;99059.91;5263810;28;20055;-67
2022/03/13 02:55:16;;;;;;;47.58;21.88;;;;;;;1.82;56.96;99063.41;5265891;28;20108;-67
2022/03/13 02:58:06;;;;;;;43.67;21.85;;;;;;;1.81;57.77;99065.19;5265652;28;20066;-68
2022/03/13 03:00:56;;;;;;;48.63;22.85;;;;;;;1.82;56.99;99050.34;5259555;28;20040;-67
2022/03/13 03:03:46;;;;;;;46.50;21.88;;;;;;;1.93;57.51;99060.22;5265949;28;20043;-67
2022/03/13 03:06:39;;;;;;;48.58;21.67;;;;;;;1.93;56.93;99060.22;5265955;28;20504;-68
2022/03/13 03:09:31;;;;;;;52.15;23.55;;;;;;;1.67;58.36;99057.28;5265472;28;20044;-68
2022/03/13 03:12:21;;;;;;;45.65;20.90;;;;;;;1.79;55.15;99053.16;5265765;28;20062;-68
2022/03/13 03:15:19;;;;;;;45.88;22.15;;;;;;;1.80;56.45;99065.28;5262042;28;20055;-68
2022/03/13 03:18:10;;;;;;;46.58;21.25;;;;;;;1.99;56.04;99068.56;5265329;28;20189;-68
2022/03/13 03:21:00;;;;;;;45.70;21.98;;;;;;;1.93;56.09;99070.69;5265138;28;20047;-68
2022/03/13 03:23:50;;;;;;;51.22;22.15;;;;;;;1.64;56.22;99047.00;5264405;28;20067;-68
2022/03/13 03:26:41;;;;;;;40.15;21.35;;;;;;;1.75;56.99;99067.31;5264572;28;20430;-68
2022/03/13 03:29:31;;;;;;;42.47;20.95;;;;;;;1.62;57.26;99052.34;5263077;28;20044;-68
2022/03/13 03:32:21;;;;;;;51.65;22.52;;;;;;;1.76;56.29;99064.63;5262996;28;20122;-68
2022/03/13 03:35:11;;;;;;;44.95;21.23;;;;;;;1.91;55.53;99062.91;5264500;28;20048;-68
2022/03/13 03:38:01;;;;;;;47.63;21.92;;;;;;;1.69;56.22;99052.84;5261923;28;20105;-68
2022/03/13 03:40:51;;;;;;;46.08;21.25;;;;;;;1.49;56.11;99067.03;5264752;28;20055;-68
2022/03/13 03:43:41;;;;;;;44.72;21.60;;;;;;;1.46;55.94;99063.72;5261503;28;20055;-68
2022/03/13 03:46:35;;;;;;;;;;;;;;;1.51;57.65;99066.91;5262881;28;20059;-68
2022/03/13 03:49:26;;;;;;;48.92;20.90;;;;;;;1.53;57.79;99062.47;5264908;28;19965;-68
2022/03/13 03:52:16;;;;;;;54.00;21.35;;;;;;;1.40;57.53;99062.28;5260951;28;20136;-68
2022/03/13 03:55:07;;;;;;;45.33;20.88;;;;;;;1.39;56.55;99056.22;5264976;28;20059;-68
2022/03/13 03:57:57;;;;;;;46.70;21.02;;;;;;;1.44;58.02;99048.13;5269446;28;20058;-68
2022/03/13 04:00:48;;;;;;;49.72;21.42;;;;;;;1.39;56.42;99048.41;5264166;28;20044;-67
2022/03/13 04:03:39;;;;;;;48.72;21.75;;;;;;;1.24;59.24;99023.09;5260444;28;20063;-68
2022/03/13 04:06:29;;;;;;;46.17;22.02;;;;;;;1.38;57.57;99046.69;5262062;28;20051;-68
2022/03/13 04:09:20;;;;;;;38.80;19.20;;;;;;;1.34;57.73;99047.78;5261820;28;20101;-68
2022/03/13 04:12:10;;;;;;;57.53;23.42;;;;;;;1.30;58.81;99056.72;5264234;28;20059;-68
2022/03/13 04:15:01;;;;;;;46.30;21.48;;;;;;;1.19;59.92;99051.22;5258981;28;20044;-68
2022/03/13 04:17:55;;;;;;;50.60;20.70;;;;;;;1.35;58.78;99041.63;5263838;28;20641;-68
2022/03/13 04:20:45;;;;;;;51.38;21.52;;;;;;;1.36;57.73;99043.34;5265576;28;20040;-68
2022/03/13 04:23:36;;;;;;;46.83;21.20;;;;;;;1.34;57.37;99053.00;5264709;28;20056;-68
2022/03/13 04:26:26;;;;;;;46.30;21.33;;;;;;;1.17;58.41;99050.50;5262948;28;20058;-68
2022/03/13 04:29:18;;;;;;;52.55;21.00;;;;;;;1.18;58.68;99057.38;5264464;28;20121;-68
2022/03/13 04:32:09;;;;;;;49.70;21.17;;;;;;;1.11;57.54;99056.03;5264062;28;20058;-68
2022/03/13 04:34:59;;;;;;;45.65;21.42;;;;;;;1.25;57.11;99060.50;5261106;28;20448;-68
2022/03/13 04:37:49;;;;;;;45.90;21.90;;;;;;;1.26;57.41;99056.97;5264307;28;20067;-68
2022/03/13 04:40:39;;;;;;;48.00;20.75;;;;;;;1.11;57.52;99048.22;5263992;28;20643;-68
2022/03/13 04:43:29;;;;;;;44.83;19.85;;;;;;;1.02;57.94;99053.91;5264525;28;20812;-68
2022/03/13 04:46:19;;;;;;;51.53;20.73;;;;;;;1.09;57.42;99047.44;5265320;28;20055;-68
2022/03/13 04:49:10;;;;;;;46.33;20.42;;;;;;;1.27;56.38;99058.66;5262853;28;20056;-68
2022/03/13 04:52:02;;;;;;;46.60;18.80;;;;;;;1.20;56.17;99046.88;5264223;28;20058;-68
2022/03/13 04:54:52;;;;;;;40.78;19.52;;;;;;;1.50;55.48;99041.72;5262617;28;20083;-68
2022/03/13 04:57:42;;;;;;;42.85;20.63;;;;;;;1.44;56.10;99055.13;5259017;28;20048;-68
2022/03/13 05:00:36;;;;;;;44.53;19.92;;;;;;;1.25;56.18;99057.91;5263823;28;20059;-68
2022/03/13 05:03:27;;;;;;;40.97;19.40;;;;;;;1.19;55.78;99043.41;5258304;28;20052;-68
2022/03/13 05:06:17;;;;;;;45.42;20.63;;;;;;;1.22;57.60;99060.69;5263505;28;20056;-68
2022/03/13 05:09:07;;;;;;;45.70;20.25;;;;;;;1.38;55.99;99057.13;5259254;28;20524;-68
2022/03/13 05:11:57;;;;;;;42.00;19.27;;;;;;;1.27;55.28;99063.91;5263913;28;20059;-68
2022/03/13 05:14:47;;;;;;;40.38;18.38;;;;;;;1.15;55.15;99053.16;5263601;28;20059;-67
2022/03/13 05:17:37;;;;;;;39.90;18.35;;;;;;;1.22;55.46;99065.91;5263690;28;20136;-68
2022/03/13 05:20:28;;;;;;;44.15;20.48;;;;;;;1.22;56.37;99074.56;5265028;28;20784;-68
2022/03/13 05:23:17;;;;;;;40.83;19.45;;;;;;;1.29;57.12;99073.34;5263920;28;20160;-68
2022/03/13 05:26:08;;;;;;;44.42;20.10;;;;;;;1.27;56.80;99072.56;5262495;28;20109;-68
2022/03/13 05:28:57;;;;;;;45.10;19.33;;;;;;;1.15;56.33;99071.44;5263875;28;20056;-67
2022/03/13 05:31:47;;;;;;;44.03;20.23;;;;;;;1.13;56.81;99075.09;5269835;28;20600;-68
2022/03/13 05:34:38;;;;;;;40.15;18.00;;;;;;;1.14;56.47;99077.59;5268180;28;20662;-69
2022/03/13 05:37:28;;;;;;;40.58;19.73;;;;;;;1.22;55.78;99090.25;5263054;28;20051;-69
2022/03/13 05:40:20;;;;;;;38.33;19.20;;;;;;;1.02;56.26;99074.81;5267572;28;20055;-68
2022/03/13 05:43:11;;;;;;;42.92;19.35;;;;;;;1.26;54.72;99077.88;5267385;28;20197;-69
2022/03/13 05:46:02;;;;;;;38.97;18.95;;;;;;;1.30;54.68;99084.63;5267239;28;20104;-68
2022/03/13 05:48:52;;;;;;;37.90;18.58;;;;;;;1.23;54.30;99065.00;5267040;28;20063;-69
2022/03/13 05:51:48;;;;;;;37.88;17.30;;;;;;;1.19;54.42;99090.41;5263662;28;20051;-69
2022/03/13 05:54:38;;;;;;;36.97;17.88;;;;;;;1.26;55.02;99088.31;5267809;28;20051;-68
2022/03/13 05:57:28;;;;;;;37.33;18.05;;;;;;;1.06;55.94;99095.47;5267084;28;20303;-68
2022/03/13 06:00:20;;;;;;;55.20;24.10;;;;;;;1.12;59.37;99100.34;5262627;28;20047;-68
2022/03/13 06:03:11;;;;;;;52.67;23.88;;;;;;;0.99;60.99;99101.09;5267212;28;20059;-68
2022/03/13 06:06:02;;;;;;;52.00;25.95;;;;;;;1.12;61.79;99100.34;5262472;28;20501;-68
2022/03/13 06:08:52;;;;;;;50.88;25.00;;;;;;;1.00;62.18;99097.56;5267883;28;20044;-68
2022/03/13 06:11:42;;;;;;;51.85;25.10;;;;;;;1.23;61.74;99115.47;5262090;28;20130;-68
2022/03/13 06:14:32;;;;;;;49.95;24.50;;;;;;;1.22;60.22;99118.13;5266607;28;20595;-68
2022/03/13 06:17:22;;;;;;;48.05;24.17;;;;;;;1.18;59.51;99100.00;5261339;28;20047;-69
2022/03/13 06:20:16;;;;;;;49.63;23.27;;;;;;;1.37;59.54;99120.78;5272779;28;20055;-69
2022/03/13 06:23:09;;;;;;;45.70;21.90;;;;;;;1.32;58.67;99124.56;5267182;28;20059;-68
2022/03/13 06:26:00;;;;;;;33.03;15.68;;;;;;;1.31;58.44;99121.09;5265744;28;20425;-68
2022/03/13 06:28:50;;;;;;;49.38;22.33;;;;;;;1.40;60.32;99131.06;5266691;28;20067;-69
2022/03/13 06:31:41;;;;;;;53.92;23.92;;;;;;;1.48;61.32;99129.81;5268114;28;20525;-69
2022/03/13 06:34:31;;;;;;;57.97;24.73;;;;;;;1.74;60.63;99129.22;5266577;28;20576;-69
2022/03/13 06:37:21;;;;;;;45.50;21.45;;;;;;;1.43;60.62;99132.69;5266071;28;20169;-69
2022/03/13 06:40:14;;;;;;;45.75;20.90;;;;;;;1.56;59.75;99111.94;5266518;28;20609;-69
2022/03/13 06:43:04;;;;;;;45.90;21.65;;;;;;;1.86;60.03;99132.94;5265275;28;20063;-70
2022/03/13 06:45:55;;;;;;;43.15;20.45;;;;;;;2.03;58.94;99137.22;5266510;28;20071;-69
2022/03/13 06:48:45;;;;;;;27.25;13.43;;;;;;;2.61;52.94;99133.84;5261137;28;20472;-69
2022/03/13 06:51:37;;;;;;;24.63;12.93;;;;;;;2.96;51.16;99141.38;5264354;28;20718;-69
2022/03/13 06:54:27;;;;;;;42.53;20.67;;;;;;;3.17;56.00;99139.22;5263344;28;20058;-67
2022/03/13 06:57:18;;;;;;;43.75;20.83;;;;;;;3.19;55.03;99153.09;5272978;28;20066;-68
2022/03/13 07:00:12;;;;;;;43.20;22.67;;;;;;;3.39;55.16;99144.84;5261649;28;20062;-68
2022/03/13 07:03:09;;;;;;;49.05;22.05;;;;;;;3.63;54.61;99152.97;5266059;28;20055;-68
2022/03/13 07:06:02;;;;;;;41.08;20.38;;;;;;;3.44;53.40;99140.16;5260756;28;20429;-68
2022/03/13 07:08:52;;;;;;;29.02;12.85;;;;;;;3.96;48.90;99143.88;5266870;28;20070;-69
2022/03/13 07:11:47;;;;;;;25.55;12.75;;;;;;;4.02;48.74;99148.75;5249666;28;20168;-68
2022/03/13 07:14:44;;;;;;;23.50;11.68;;;;;;;4.34;47.52;99151.91;5275127;28;20112;-68
2022/03/13 07:17:34;;;;;;;22.65;12.07;;;;;;;4.79;47.11;99154.19;5261844;28;20052;-69
2022/03/13 07:20:24;;;;;;;28.25;11.75;;;;;;;4.83;46.42;99156.50;5267455;28;20059;-67
2022/03/13 07:23:14;;;;;;;31.98;12.57;;;;;;;5.01;45.38;99161.47;5261763;28;20710;-68
2022/03/13 07:26:05;;;;;;;19.92;10.32;;;;;;;5.27;44.23;99159.69;5266788;28;20059;-68
2022/03/13 07:28:55;;;;;;;23.17;10.40;;;;;;;5.11;42.92;99155.47;5264085;28;20097;-67
2022/03/13 07:31:45;;;;;;;22.98;11.27;;;;;;;5.34;42.11;99148.63;5275515;28;20116;-67
2022/03/13 07:34:35;;;;;;;21.98;10.43;;;;;;;5.97;42.43;99149.47;5263241;28;20086;-67
2022/03/13 07:37:26;;;;;;;19.50;10.48;;;;;;;6.37;40.48;99149.19;5263691;28;20126;-67
2022/03/13 07:40:17;;;;;;;19.65;10.55;;;;;;;7.01;40.62;99149.59;5266108;28;20071;-69
2022/03/13 07:43:07;;;;;;;22.35;11.05;;;;;;;8.27;37.68;99150.22;5261094;28;20081;-66
2022/03/13 07:45:57;;;;;;;22.15;11.30;;;;;;;7.98;37.75;99149.97;5257460;28;20052;-67
2022/03/13 07:48:48;;;;;;;21.60;10.85;;;;;;;8.18;37.76;99133.31;5268637;28;20044;-66
2022/03/13 07:51:37;;;;;;;18.63;10.48;;;;;;;8.20;37.46;99143.75;5260836;28;20121;-66
2022/03/13 07:54:27;;;;;;;24.17;11.88;;;;;;;8.22;37.32;99140.03;5272233;28;20054;-66
2022/03/13 07:57:19;;;;;;;23.10;12.63;;;;;;;8.51;36.15;99144.78;5266864;28;20054;-66
2022/03/13 08:00:11;;;;;;;23.85;13.45;;;;;;;8.42;36.64;99141.06;5264976;28;20066;-66
2022/03/13 08:03:05;;;;;;;24.33;11.88;;;;;;;9.76;34.99;99142.91;5264757;28;20501;-65
2022/03/13 08:05:55;;;;;;;21.95;11.13;;;;;;;9.45;34.85;99144.78;5264006;28;20164;-67
2022/03/13 08:08:45;;;;;;;19.52;11.30;;;;;;;10.02;34.11;99130.84;5265907;28;20516;-67
2022/03/13 08:11:35;;;;;;;21.33;10.35;;;;;;;11.13;33.64;99139.38;5264377;28;20598;-67
2022/03/13 08:14:27;;;;;;;21.63;10.93;;;;;;;11.57;31.66;99140.47;5264106;28;20490;-67
2022/03/13 08:17:19;;;;;;;19.67;10.65;;;;;;;12.53;31.00;99140.88;5265301;28;20063;-67
2022/03/13 08:20:10;;;;;;;22.98;11.38;;;;;;;11.99;30.91;99134.69;5263843;28;20055;-67
2022/03/13 08:23:01;;;;;;;19.85;11.55;;;;;;;12.07;31.17;99142.75;5273513;27;20522;-67
2022/03/13 08:25:51;;;;;;;22.88;11.95;;;;;;;11.86;30.74;99150.16;5259964;28;20056;-67
2022/03/13 08:28:42;;;;;;;20.90;11.10;;;;;;;11.82;31.02;99151.38;5261381;28;20043;-67
2022/03/13 08:31:33;;;;;;;17.80;10.60;;;;;;;11.59;31.84;99146.47;5260232;28;20079;-66
2022/03/13 08:34:23;;;;;;;17.67;11.05;;;;;;;12.10;31.55;99138.94;5267280;28;20647;-67
2022/03/13 08:37:13;;;;;;;19.77;11.50;;;;;;;11.57;31.23;99148.44;5262757;28;20142;-66
2022/03/13 08:40:04;;;;;;;19.95;10.75;;;;;;;11.11;31.95;99133.34;5268376;28;20164;-68
2022/03/13 08:42:56;;;;;;;21.35;11.13;;;;;;;11.88;32.26;99141.03;5261811;28;20105;-67
2022/03/13 08:45:46;;;;;;;21.13;11.40;;;;;;;11.12;32.27;99130.53;5262113;28;20051;-67
2022/03/13 08:48:36;;;;;;;20.27;11.25;;;;;;;11.83;31.73;99132.66;5264633;28;20149;-67
2022/03/13 08:51:27;;;;;;;18.40;11.02;;;;;;;11.46;32.54;99138.00;5261886;28;20051;-67
2022/03/13 08:54:17;;;;;;;23.48;13.05;;;;;;;11.72;32.11;99151.41;5266609;28;20108;-67
2022/03/13 08:57:07;;;;;;;23.80;13.10;;;;;;;11.37;32.56;99141.53;5280466;28;20184;-67
2022/03/13 08:59:57;;;;;;;34.50;14.10;;;;;;;11.43;32.31;99130.31;5276745;28;20051;-67
2022/03/13 09:02:50;;;;;;;22.83;12.98;;;;;;;11.91;32.01;99094.72;5261006;28;20054;-67
2022/03/13 09:05:40;;;;;;;26.08;14.25;;;;;;;12.94;31.00;99133.19;5266002;28;20067;-67
2022/03/13 09:08:30;;;;;;;22.90;12.88;;;;;;;12.58;31.10;99127.09;5265335;28;20119;-66
2022/03/13 09:11:21;;;;;;;25.83;13.80;;;;;;;12.95;30.98;99118.94;5266498;28;20048;-67
2022/03/13 09:14:11;;;;;;;25.30;14.95;;;;;;;13.91;30.19;99121.44;5265152;28;20427;-66
2022/03/13 09:17:02;;;;;;;25.60;14.57;;;;;;;14.40;30.77;99121.50;5264960;28;20059;-66
2022/03/13 09:19:53;;;;;;;24.58;14.63;;;;;;;14.37;29.17;99105.88;5264903;28;20059;-66
2022/03/13 09:22:44;;;;;;;28.73;15.30;;;;;;;14.73;29.08;99105.53;5265011;28;20549;-67
2022/03/13 09:25:34;;;;;;;24.20;15.38;;;;;;;14.48;29.19;99102.84;5271120;28;20070;-67
2022/03/13 09:28:26;;;;;;;25.20;15.38;;;;;;;15.30;28.88;99108.16;5286597;28;20232;-67
2022/03/13 09:31:19;;;;;;;27.65;16.17;;;;;;;15.65;28.23;99109.50;5267942;28;20059;-70
2022/03/13 09:34:10;;;;;;;26.08;15.82;;;;;;;15.11;28.57;99105.84;5267999;28;20059;-68
2022/03/13 09:37:01;;;;;;;30.20;15.82;;;;;;;15.84;28.66;99110.13;5267782;28;20825;-68
2022/03/13 09:39:51;;;;;;;27.05;16.55;;;;;;;15.47;28.42;99114.28;5278678;28;20145;-66
2022/03/13 09:42:42;;;;;;;30.60;16.85;;;;;;;15.38;28.84;99113.44;5289236;28;20058;-66
2022/03/13 09:45:33;;;;;;;27.65;16.95;;;;;;;15.91;28.72;99108.41;5288902;28;20138;-67
2022/03/13 09:48:23;;;;;;;27.02;15.68;;;;;;;16.80;27.80;99090.94;5283308;28;20047;-66
2022/03/13 09:51:13;;;;;;;36.33;18.23;;;;;;;17.14;26.97;99097.63;5272337;28;20102;-68
2022/03/13 09:54:04;;;;;;;31.42;17.60;;;;;;;16.88;27.04;99100.72;5270389;28;20060;-67
2022/03/13 09:56:54;;;;;;;29.73;17.63;;;;;;;17.54;28.18;99098.19;5267062;28;20044;-67
2022/03/13 09:59:46;;;;;;;32.63;18.33;;;;;;;17.33;27.85;99097.09;5263826;28;20047;-67
2022/03/13 10:02:38;;;;;;;31.73;18.20;;;;;;;17.84;26.63;99104.38;5258890;28;20054;-68
2022/03/13 10:05:40;;;;;;;29.92;17.58;;;;;;;18.11;27.05;99094.75;5245490;28;20525;-69
2022/03/13 10:08:31;;;;;;;28.58;17.15;;;;;;;18.42;26.07;99091.81;5262789;28;20581;-68
2022/03/13 10:11:34;;;;;;;26.00;16.85;;;;;;;18.43;28.05;99092.63;5264065;28;20080;-68
2022/03/13 10:14:24;;;;;;;30.67;17.67;;;;;;;18.94;27.54;99084.41;5278517;28;20079;-68
2022/03/13 10:17:26;;;;;;;31.35;18.13;;;;;;;18.52;26.88;99081.56;5264772;28;20199;-68
2022/03/13 10:20:26;;;;;;;30.85;18.77;;;;;;;17.66;27.11;99080.59;5262067;28;20054;-68
2022/03/13 10:23:20;;;;;;;34.00;18.85;;;;;;;18.88;25.89;99074.47;5266022;28;20051;-68
2022/03/13 10:26:10;;;;;;;30.85;18.65;;;;;;;19.25;26.03;99075.94;5265666;28;20139;-68
2022/03/13 10:29:01;;;;;;;30.65;18.00;;;;;;;18.02;25.78;99071.78;5266034;28;20058;-68
2022/03/13 10:31:59;;;;;;;32.78;18.38;;;;;;;17.61;26.24;99061.56;5250899;28;20048;-68
2022/03/13 10:35:01;;;;;;;33.28;18.45;;;;;;;18.36;27.81;99068.41;5265846;28;20178;-68
2022/03/13 10:37:51;;;;;;;34.40;19.13;;;;;;;19.28;27.89;99054.03;5265927;28;20059;-67
2022/03/13 10:40:42;;;;;;;35.78;19.17;;;;;;;18.38;25.75;99054.81;5266020;28;20105;-68
2022/03/13 10:43:34;;;;;;;34.20;19.33;;;;;;;18.26;26.62;99055.28;5265612;28;20040;-68
2022/03/13 10:46:26;;;;;;;31.00;19.20;;;;;;;18.47;26.90;99056.31;5264260;28;20127;-68
2022/03/13 10:49:31;;;;;;;30.60;19.20;;;;;;;19.06;26.71;99055.16;5265156;28;20056;-68
2022/03/13 10:52:25;;;;;;;35.35;19.35;;;;;;;19.35;27.07;99046.00;5265131;28;20502;-68
2022/03/13 10:55:22;;;;;;;34.80;20.45;;;;;;;18.88;25.55;99052.97;5265580;28;20055;-68
2022/03/13 10:58:15;;;;;;;31.52;19.95;;;;;;;18.98;26.08;99043.53;5263224;28;20137;-68
2022/03/13 11:01:07;;;;;;;30.83;18.73;;;;;;;17.48;27.78;99034.59;5265383;28;20101;-67
2022/03/13 11:04:06;;;;;;;30.77;18.80;;;;;;;17.56;28.37;99042.53;5264958;28;20619;-68
2022/03/13 11:06:56;;;;;;;33.65;20.00;;;;;;;17.43;27.41;99034.31;5265045;28;20110;-67
2022/03/13 11:09:46;;;;;;;33.20;19.10;;;;;;;16.30;27.64;99025.41;5264753;28;20565;-68
2022/03/13 11:12:40;;;;;;;35.30;20.65;;;;;;;16.39;28.04;99032.38;5265079;28;20051;-67
2022/03/13 11:15:33;;;;;;;;;;;;;;;16.38;29.37;99030.69;5265470;28;20517;-67
2022/03/13 11:18:30;;;;;;;46.90;21.92;;;;;;;16.73;27.83;99023.03;5262114;28;20023;-68
2022/03/13 11:21:22;;;;;;;37.85;22.33;;;;;;;17.44;28.95;99031.44;5254160;28;20055;-68
2022/03/13 11:24:12;;;;;;;34.58;19.83;;;;;;;17.24;29.46;99015.13;5259113;28;20058;-68
2022/03/13 11:27:09;;;;;;;36.67;21.48;;;;;;;18.07;27.67;99021.88;5249290;28;20054;-68
2022/03/13 11:29:59;;;;;;;38.90;21.23;;;;;;;18.21;27.99;99020.16;5264759;28;20044;-68
2022/03/13 11:32:50;;;;;;;42.53;23.17;;;;;;;18.21;27.69;99012.13;5263512;28;20052;-68
2022/03/13 11:35:40;;;;;;;36.58;21.55;;;;;;;17.03;28.96;99009.69;5265267;28;20051;-69
2022/03/13 11:38:30;;;;;;;41.72;22.30;;;;;;;17.17;27.55;99000.81;5264797;28;20189;-68
2022/03/13 11:41:42;;;;;;;41.53;23.13;;;;;;;16.88;28.22;99006.97;5251130;28;20044;-69
2022/03/13 11:44:36;;;;;;;36.58;21.58;;;;;;;17.87;30.00;99003.91;5260916;28;20082;-69
2022/03/13 11:47:26;;;;;;;37.08;22.25;;;;;;;17.86;27.46;98995.06;5264369;28;20165;-69
2022/03/13 11:50:16;;;;;;;36.13;21.88;;;;;;;17.95;27.48;98987.72;5263998;28;20135;-69
2022/03/13 11:53:19;;;;;;;46.60;23.00;;;;;;;17.29;29.55;98990.44;5258735;28;20074;-70
2022/03/13 11:56:31;;;;;;;53.55;23.65;;;;;;;18.07;27.88;98991.53;5252070;28;20108;-68
2022/03/13 11:59:22;;;;;;;41.28;22.83;;;;;;;17.28;28.10;98988.78;5265080;28;20073;-69
2022/03/13 12:02:12;;;;;;;39.05;23.17;;;;;;;17.97;27.87;98985.66;5264979;28;20059;-69
2022/03/13 12:05:28;;;;;;;39.92;22.30;;;;;;;18.25;27.82;98975.00;5264899;28;20056;-69
2022/03/13 12:08:22;;;;;;;42.83;22.80;;;;;;;17.43;29.16;98967.31;5264369;28;20422;-68
2022/03/13 12:12:00;;;;;;;41.15;22.80;;;;;;;17.39;27.83;98961.50;5260160;28;20148;-69
2022/03/13 12:14:54;;;;;;;46.30;24.73;;;;;;;17.24;30.36;98958.84;5251770;28;20112;-68
2022/03/13 12:17:47;;;;;;;37.63;21.92;;;;;;;18.15;27.68;98956.53;5264183;28;20077;-68
2022/03/13 12:20:37;;;;;;;41.42;24.17;;;;;;;17.43;28.42;98953.91;5264563;28;20097;-68
2022/03/13 12:23:31;;;;;;;38.05;22.48;;;;;;;18.16;27.46;98944.75;5263267;28;20050;-68
2022/03/13 12:26:35;;;;;;;39.67;23.60;;;;;;;17.83;28.54;98952.50;5264626;28;20102;-69
2022/03/13 12:29:28;;;;;;;45.40;24.52;;;;;;;17.87;27.58;98947.59;5264897;28;20152;-68
2022/03/13 12:32:17;;;;;;;43.65;23.65;;;;;;;17.21;27.77;98943.13;5264973;28;20059;-68
2022/03/13 12:35:08;;;;;;;47.42;23.45;;;;;;;17.30;27.95;98936.66;5264775;28;20051;-68
2022/03/13 12:38:03;;;;;;;40.55;23.05;;;;;;;18.10;28.01;98945.53;5264212;28;20047;-69
2022/03/13 12:40:55;;;;;;;38.50;22.65;;;;;;;17.25;28.75;98931.03;5264024;28;20492;-68
2022/03/13 12:43:53;;;;;;;40.13;22.88;;;;;;;17.61;27.34;98932.84;5264497;28;20075;-69
2022/03/13 12:46:47;;;;;;;43.70;23.23;;;;;;;17.21;28.28;98935.09;5264317;28;20044;-69
2022/03/13 12:49:37;;;;;;;41.28;23.30;;;;;;;17.85;26.85;98929.03;5264449;28;20127;-69
2022/03/13 12:52:27;;;;;;;39.58;22.67;;;;;;;17.54;28.17;98927.44;5264214;28;20124;-69
2022/03/13 12:55:20;;;;;;;43.25;23.55;;;;;;;17.61;27.04;98930.19;5264455;28;20056;-69
2022/03/13 12:58:11;;;;;;;43.10;23.40;;;;;;;17.69;28.36;98926.56;5252532;28;20130;-69
2022/03/13 13:01:01;;;;;;;37.47;22.35;;;;;;;17.82;27.97;98898.06;5263434;28;20048;-69
2022/03/13 13:03:53;;;;;;;39.78;23.20;;;;;;;17.72;26.64;98918.13;5264467;28;20631;-69
2022/03/13 13:06:50;;;;;;;40.38;22.67;;;;;;;18.08;27.37;98912.72;5263438;28;20055;-67
2022/03/13 13:09:43;;;;;;;40.05;22.67;;;;;;;17.70;28.16;98912.13;5259901;28;20069;-68
2022/03/13 13:12:35;;;;;;;41.47;23.58;;;;;;;17.86;27.35;98898.50;5263736;28;20063;-68
2022/03/13 13:15:25;;;;;;;45.20;22.55;;;;;;;17.90;27.56;98899.75;5262337;28;20465;-69